sensor_id;sensor_type;location;lat;lon;timestamp;temperature;humidity
41628;DHT22;27321;50.816;6.054;2023-05-07T00:02:00;16.90;74.60
41628;DHT22;27321;50.816;6.054;2023-05-07T00:05:01;16.90;74.50
41628;DHT22;27321;50.816;6.054;2023-05-07T00:08:03;16.90;74.60
41628;DHT22;27321;50.816;6.054;2023-05-07T00:11:04;16.90;74.50
41628;DHT22;27321;50.816;6.054;2023-05-07T00:14:05;16.90;74.60
41628;DHT22;27321;50.816;6.054;2023-05-07T00:17:06;16.90;74.50
41628;DHT22;27321;50.816;6.054;2023-05-07T00:20:07;16.90;74.40
41628;DHT22;27321;50.816;6.054;2023-05-07T00:23:09;16.80;74.30
41628;DHT22;27321;50.816;6.054;2023-05-07T00:26:10;16.80;74.30
41628;DHT22;27321;50.816;6.054;2023-05-07T00:29:11;16.80;74.40
41628;DHT22;27321;50.816;6.054;2023-05-07T00:32:12;16.90;74.30
41628;DHT22;27321;50.816;6.054;2023-05-07T00:35:13;16.80;74.30
41628;DHT22;27321;50.816;6.054;2023-05-07T00:38:14;16.80;74.20
41628;DHT22;27321;50.816;6.054;2023-05-07T00:41:15;16.80;74.20
41628;DHT22;27321;50.816;6.054;2023-05-07T00:44:16;16.80;74.00
41628;DHT22;27321;50.816;6.054;2023-05-07T00:47:18;16.70;74.30
41628;DHT22;27321;50.816;6.054;2023-05-07T00:50:19;16.70;74.50
41628;DHT22;27321;50.816;6.054;2023-05-07T00:53:20;16.70;74.60
41628;DHT22;27321;50.816;6.054;2023-05-07T00:56:21;16.70;74.60
41628;DHT22;27321;50.816;6.054;2023-05-07T00:59:23;16.70;74.40
41628;DHT22;27321;50.816;6.054;2023-05-07T01:02:24;16.70;74.50
41628;DHT22;27321;50.816;6.054;2023-05-07T01:05:25;16.70;74.50
41628;DHT22;27321;50.816;6.054;2023-05-07T01:08:27;16.70;74.50
41628;DHT22;27321;50.816;6.054;2023-05-07T01:11:30;16.80;74.60
41628;DHT22;27321;50.816;6.054;2023-05-07T01:14:31;16.80;74.60
41628;DHT22;27321;50.816;6.054;2023-05-07T01:17:34;16.80;74.80
41628;DHT22;27321;50.816;6.054;2023-05-07T01:20:37;16.70;74.80
41628;DHT22;27321;50.816;6.054;2023-05-07T01:23:38;16.70;74.90
41628;DHT22;27321;50.816;6.054;2023-05-07T01:26:40;16.70;74.90
41628;DHT22;27321;50.816;6.054;2023-05-07T01:29:42;16.70;75.10
41628;DHT22;27321;50.816;6.054;2023-05-07T01:32:46;16.70;75.20
41628;DHT22;27321;50.816;6.054;2023-05-07T01:35:53;16.70;75.20
41628;DHT22;27321;50.816;6.054;2023-05-07T01:38:54;16.70;75.20
41628;DHT22;27321;50.816;6.054;2023-05-07T01:41:55;16.70;75.10
41628;DHT22;27321;50.816;6.054;2023-05-07T01:44:58;16.60;75.10
41628;DHT22;27321;50.816;6.054;2023-05-07T01:47:59;16.60;74.80
41628;DHT22;27321;50.816;6.054;2023-05-07T01:51:01;16.60;74.70
41628;DHT22;27321;50.816;6.054;2023-05-07T01:54:02;16.50;74.80
41628;DHT22;27321;50.816;6.054;2023-05-07T01:57:03;16.40;75.20
41628;DHT22;27321;50.816;6.054;2023-05-07T02:00:05;16.40;75.50
41628;DHT22;27321;50.816;6.054;2023-05-07T02:03:16;16.40;75.50
41628;DHT22;27321;50.816;6.054;2023-05-07T02:06:28;16.40;75.50
41628;DHT22;27321;50.816;6.054;2023-05-07T02:09:34;16.40;75.50
41628;DHT22;27321;50.816;6.054;2023-05-07T02:12:35;16.30;75.30
41628;DHT22;27321;50.816;6.054;2023-05-07T02:15:36;16.30;75.00
41628;DHT22;27321;50.816;6.054;2023-05-07T02:18:38;16.30;75.00
41628;DHT22;27321;50.816;6.054;2023-05-07T02:21:39;16.30;75.00
41628;DHT22;27321;50.816;6.054;2023-05-07T02:24:41;16.20;75.20
41628;DHT22;27321;50.816;6.054;2023-05-07T02:27:42;16.10;75.30
41628;DHT22;27321;50.816;6.054;2023-05-07T02:30:43;16.10;75.30
41628;DHT22;27321;50.816;6.054;2023-05-07T02:33:45;16.10;75.20
41628;DHT22;27321;50.816;6.054;2023-05-07T02:36:46;16.10;75.30
41628;DHT22;27321;50.816;6.054;2023-05-07T02:39:51;16.10;75.10
41628;DHT22;27321;50.816;6.054;2023-05-07T02:42:52;16.20;75.20
41628;DHT22;27321;50.816;6.054;2023-05-07T02:46:03;16.20;75.10
41628;DHT22;27321;50.816;6.054;2023-05-07T02:49:05;16.20;75.00
41628;DHT22;27321;50.816;6.054;2023-05-07T02:52:07;16.20;75.00
41628;DHT22;27321;50.816;6.054;2023-05-07T02:55:09;16.20;74.90
41628;DHT22;27321;50.816;6.054;2023-05-07T02:58:10;16.20;75.00
41628;DHT22;27321;50.816;6.054;2023-05-07T03:01:12;16.20;75.00
41628;DHT22;27321;50.816;6.054;2023-05-07T03:04:22;16.20;74.90
41628;DHT22;27321;50.816;6.054;2023-05-07T03:07:23;16.20;75.00
41628;DHT22;27321;50.816;6.054;2023-05-07T03:10:24;16.10;75.10
41628;DHT22;27321;50.816;6.054;2023-05-07T03:13:25;16.10;75.20
41628;DHT22;27321;50.816;6.054;2023-05-07T03:16:27;16.10;75.20
41628;DHT22;27321;50.816;6.054;2023-05-07T03:19:28;16.10;75.10
41628;DHT22;27321;50.816;6.054;2023-05-07T03:22:31;16.10;75.00
41628;DHT22;27321;50.816;6.054;2023-05-07T03:25:32;16.10;74.90
41628;DHT22;27321;50.816;6.054;2023-05-07T03:28:36;16.10;75.00
41628;DHT22;27321;50.816;6.054;2023-05-07T03:31:41;16.00;74.90
41628;DHT22;27321;50.816;6.054;2023-05-07T03:34:42;16.00;74.80
41628;DHT22;27321;50.816;6.054;2023-05-07T03:37:46;15.90;75.00
41628;DHT22;27321;50.816;6.054;2023-05-07T03:40:48;15.90;74.80
41628;DHT22;27321;50.816;6.054;2023-05-07T03:43:49;15.90;74.70
41628;DHT22;27321;50.816;6.054;2023-05-07T03:46:51;15.90;74.70
41628;DHT22;27321;50.816;6.054;2023-05-07T03:49:52;15.90;74.40
41628;DHT22;27321;50.816;6.054;2023-05-07T03:52:55;15.90;74.70
41628;DHT22;27321;50.816;6.054;2023-05-07T03:55:58;15.80;74.90
41628;DHT22;27321;50.816;6.054;2023-05-07T03:59:02;15.80;75.10
41628;DHT22;27321;50.816;6.054;2023-05-07T04:02:03;15.80;75.10
41628;DHT22;27321;50.816;6.054;2023-05-07T04:05:06;15.80;75.00
41628;DHT22;27321;50.816;6.054;2023-05-07T04:08:07;15.80;75.10
41628;DHT22;27321;50.816;6.054;2023-05-07T04:11:13;15.80;75.10
41628;DHT22;27321;50.816;6.054;2023-05-07T04:14:14;15.80;75.20
41628;DHT22;27321;50.816;6.054;2023-05-07T04:17:15;15.90;75.20
41628;DHT22;27321;50.816;6.054;2023-05-07T04:20:16;15.90;75.20
41628;DHT22;27321;50.816;6.054;2023-05-07T04:23:20;15.90;75.40
41628;DHT22;27321;50.816;6.054;2023-05-07T04:26:21;15.90;75.40
41628;DHT22;27321;50.816;6.054;2023-05-07T04:29:23;15.90;75.40
41628;DHT22;27321;50.816;6.054;2023-05-07T04:32:25;16.00;75.60
41628;DHT22;27321;50.816;6.054;2023-05-07T04:35:27;16.00;75.30
41628;DHT22;27321;50.816;6.054;2023-05-07T04:38:29;16.00;75.80
41628;DHT22;27321;50.816;6.054;2023-05-07T04:41:31;16.00;75.70
41628;DHT22;27321;50.816;6.054;2023-05-07T04:44:33;16.00;75.50
41628;DHT22;27321;50.816;6.054;2023-05-07T04:47:35;15.90;75.60
41628;DHT22;27321;50.816;6.054;2023-05-07T04:50:37;15.90;75.60
41628;DHT22;27321;50.816;6.054;2023-05-07T04:53:38;15.80;75.80
41628;DHT22;27321;50.816;6.054;2023-05-07T04:56:40;15.90;76.00
41628;DHT22;27321;50.816;6.054;2023-05-07T04:59:43;15.90;75.90
41628;DHT22;27321;50.816;6.054;2023-05-07T05:02:45;16.00;75.90
41628;DHT22;27321;50.816;6.054;2023-05-07T05:05:50;16.00;76.00
41628;DHT22;27321;50.816;6.054;2023-05-07T05:08:53;16.10;76.00
41628;DHT22;27321;50.816;6.054;2023-05-07T05:11:54;16.10;76.10
41628;DHT22;27321;50.816;6.054;2023-05-07T05:14:56;16.20;76.00
41628;DHT22;27321;50.816;6.054;2023-05-07T05:17:57;16.30;76.20
41628;DHT22;27321;50.816;6.054;2023-05-07T05:20:58;16.30;76.10
41628;DHT22;27321;50.816;6.054;2023-05-07T05:24:00;16.40;76.20
41628;DHT22;27321;50.816;6.054;2023-05-07T05:27:02;16.50;76.10
41628;DHT22;27321;50.816;6.054;2023-05-07T05:30:05;16.50;76.00
41628;DHT22;27321;50.816;6.054;2023-05-07T05:33:08;16.60;75.90
41628;DHT22;27321;50.816;6.054;2023-05-07T05:36:10;16.60;76.00
41628;DHT22;27321;50.816;6.054;2023-05-07T05:39:13;16.70;76.00
41628;DHT22;27321;50.816;6.054;2023-05-07T05:42:14;16.70;76.00
41628;DHT22;27321;50.816;6.054;2023-05-07T05:45:15;16.80;75.80
41628;DHT22;27321;50.816;6.054;2023-05-07T05:48:18;16.80;75.70
41628;DHT22;27321;50.816;6.054;2023-05-07T05:51:20;16.90;75.80
41628;DHT22;27321;50.816;6.054;2023-05-07T05:54:21;17.00;75.80
41628;DHT22;27321;50.816;6.054;2023-05-07T05:57:22;17.10;75.90
41628;DHT22;27321;50.816;6.054;2023-05-07T06:00:24;17.10;75.90
41628;DHT22;27321;50.816;6.054;2023-05-07T06:03:34;17.10;75.80
41628;DHT22;27321;50.816;6.054;2023-05-07T06:06:39;17.30;75.80
41628;DHT22;27321;50.816;6.054;2023-05-07T06:09:41;17.30;75.80
41628;DHT22;27321;50.816;6.054;2023-05-07T06:12:42;17.30;75.30
41628;DHT22;27321;50.816;6.054;2023-05-07T06:15:44;17.40;75.00
41628;DHT22;27321;50.816;6.054;2023-05-07T06:18:47;17.50;74.60
41628;DHT22;27321;50.816;6.054;2023-05-07T06:21:50;17.50;74.40
41628;DHT22;27321;50.816;6.054;2023-05-07T06:24:51;17.60;74.40
41628;DHT22;27321;50.816;6.054;2023-05-07T06:27:52;17.60;74.60
41628;DHT22;27321;50.816;6.054;2023-05-07T06:30:53;17.70;74.60
41628;DHT22;27321;50.816;6.054;2023-05-07T06:33:54;17.70;74.50
41628;DHT22;27321;50.816;6.054;2023-05-07T06:36:56;17.80;74.70
41628;DHT22;27321;50.816;6.054;2023-05-07T06:40:17;17.80;74.80
41628;DHT22;27321;50.816;6.054;2023-05-07T06:43:20;17.90;74.80
41628;DHT22;27321;50.816;6.054;2023-05-07T06:46:28;18.00;74.90
41628;DHT22;27321;50.816;6.054;2023-05-07T06:49:30;18.10;74.90
41628;DHT22;27321;50.816;6.054;2023-05-07T06:52:32;18.10;74.80
41628;DHT22;27321;50.816;6.054;2023-05-07T06:55:33;18.10;73.90
41628;DHT22;27321;50.816;6.054;2023-05-07T06:58:34;18.10;73.30
41628;DHT22;27321;50.816;6.054;2023-05-07T07:01:36;18.20;73.40
41628;DHT22;27321;50.816;6.054;2023-05-07T07:04:38;18.20;72.00
41628;DHT22;27321;50.816;6.054;2023-05-07T07:07:43;18.20;71.70
41628;DHT22;27321;50.816;6.054;2023-05-07T07:10:44;18.30;72.00
41628;DHT22;27321;50.816;6.054;2023-05-07T07:13:49;18.30;72.20
41628;DHT22;27321;50.816;6.054;2023-05-07T07:16:51;18.40;72.20
41628;DHT22;27321;50.816;6.054;2023-05-07T07:19:54;18.50;71.50
41628;DHT22;27321;50.816;6.054;2023-05-07T07:22:55;18.50;71.50
41628;DHT22;27321;50.816;6.054;2023-05-07T07:25:56;18.60;71.10
41628;DHT22;27321;50.816;6.054;2023-05-07T07:28:58;18.70;70.90
41628;DHT22;27321;50.816;6.054;2023-05-07T07:31:59;18.80;69.20
41628;DHT22;27321;50.816;6.054;2023-05-07T07:35:00;18.80;68.40
41628;DHT22;27321;50.816;6.054;2023-05-07T07:38:02;18.80;67.40
41628;DHT22;27321;50.816;6.054;2023-05-07T07:41:04;18.80;67.90
41628;DHT22;27321;50.816;6.054;2023-05-07T07:44:05;18.90;67.50
41628;DHT22;27321;50.816;6.054;2023-05-07T07:47:09;19.00;67.30
41628;DHT22;27321;50.816;6.054;2023-05-07T07:50:11;19.00;67.40
41628;DHT22;27321;50.816;6.054;2023-05-07T07:53:12;19.10;66.40
41628;DHT22;27321;50.816;6.054;2023-05-07T07:56:13;19.10;66.50
41628;DHT22;27321;50.816;6.054;2023-05-07T07:59:15;19.20;67.00
41628;DHT22;27321;50.816;6.054;2023-05-07T08:02:20;19.30;67.60
41628;DHT22;27321;50.816;6.054;2023-05-07T08:05:21;19.30;67.30
41628;DHT22;27321;50.816;6.054;2023-05-07T08:08:23;19.40;67.00
41628;DHT22;27321;50.816;6.054;2023-05-07T08:11:28;19.40;66.40
41628;DHT22;27321;50.816;6.054;2023-05-07T08:14:30;19.40;66.30
41628;DHT22;27321;50.816;6.054;2023-05-07T08:17:34;19.40;66.00
41628;DHT22;27321;50.816;6.054;2023-05-07T08:20:36;19.40;65.70
41628;DHT22;27321;50.816;6.054;2023-05-07T08:23:42;19.50;65.40
41628;DHT22;27321;50.816;6.054;2023-05-07T08:26:44;19.50;65.60
41628;DHT22;27321;50.816;6.054;2023-05-07T08:29:46;19.50;65.30
41628;DHT22;27321;50.816;6.054;2023-05-07T08:32:51;19.50;64.90
41628;DHT22;27321;50.816;6.054;2023-05-07T08:35:52;19.50;64.90
41628;DHT22;27321;50.816;6.054;2023-05-07T08:38:53;19.60;64.80
41628;DHT22;27321;50.816;6.054;2023-05-07T08:41:57;19.70;64.40
41628;DHT22;27321;50.816;6.054;2023-05-07T08:45:01;19.80;64.00
41628;DHT22;27321;50.816;6.054;2023-05-07T08:48:17;20.00;62.60
41628;DHT22;27321;50.816;6.054;2023-05-07T08:51:24;20.10;62.70
41628;DHT22;27321;50.816;6.054;2023-05-07T08:54:27;20.10;61.40
41628;DHT22;27321;50.816;6.054;2023-05-07T08:57:30;20.20;61.80
41628;DHT22;27321;50.816;6.054;2023-05-07T09:00:31;20.20;60.70
41628;DHT22;27321;50.816;6.054;2023-05-07T09:03:34;20.30;60.30
41628;DHT22;27321;50.816;6.054;2023-05-07T09:06:35;20.30;58.10
41628;DHT22;27321;50.816;6.054;2023-05-07T09:09:39;20.30;58.80
41628;DHT22;27321;50.816;6.054;2023-05-07T09:12:41;20.20;59.30
41628;DHT22;27321;50.816;6.054;2023-05-07T09:15:45;20.30;59.40
41628;DHT22;27321;50.816;6.054;2023-05-07T09:18:49;20.40;60.30
41628;DHT22;27321;50.816;6.054;2023-05-07T09:22:02;20.40;59.20
41628;DHT22;27321;50.816;6.054;2023-05-07T09:25:10;20.50;59.50
41628;DHT22;27321;50.816;6.054;2023-05-07T09:28:12;20.60;58.80
41628;DHT22;27321;50.816;6.054;2023-05-07T09:31:14;20.60;58.30
41628;DHT22;27321;50.816;6.054;2023-05-07T09:34:15;20.70;58.50
41628;DHT22;27321;50.816;6.054;2023-05-07T09:37:19;20.80;57.90
41628;DHT22;27321;50.816;6.054;2023-05-07T09:40:22;20.90;57.80
41628;DHT22;27321;50.816;6.054;2023-05-07T09:43:24;21.10;58.30
41628;DHT22;27321;50.816;6.054;2023-05-07T09:46:31;21.10;57.80
41628;DHT22;27321;50.816;6.054;2023-05-07T09:49:39;21.10;56.60
41628;DHT22;27321;50.816;6.054;2023-05-07T09:52:46;21.20;57.10
41628;DHT22;27321;50.816;6.054;2023-05-07T09:55:47;21.10;56.70
41628;DHT22;27321;50.816;6.054;2023-05-07T09:58:48;21.10;56.60
41628;DHT22;27321;50.816;6.054;2023-05-07T10:01:50;21.10;56.90
41628;DHT22;27321;50.816;6.054;2023-05-07T10:04:53;21.20;57.30
41628;DHT22;27321;50.816;6.054;2023-05-07T10:08:00;21.30;57.10
41628;DHT22;27321;50.816;6.054;2023-05-07T10:11:03;21.30;57.30
41628;DHT22;27321;50.816;6.054;2023-05-07T10:14:05;21.30;56.50
41628;DHT22;27321;50.816;6.054;2023-05-07T10:17:11;21.30;56.50
41628;DHT22;27321;50.816;6.054;2023-05-07T10:20:14;21.40;55.90
41628;DHT22;27321;50.816;6.054;2023-05-07T10:23:23;21.50;55.70
41628;DHT22;27321;50.816;6.054;2023-05-07T10:26:27;21.40;56.30
41628;DHT22;27321;50.816;6.054;2023-05-07T10:29:33;21.50;57.10
41628;DHT22;27321;50.816;6.054;2023-05-07T10:32:48;21.40;57.60
41628;DHT22;27321;50.816;6.054;2023-05-07T10:35:59;21.30;57.50
41628;DHT22;27321;50.816;6.054;2023-05-07T10:39:05;21.20;57.60
41628;DHT22;27321;50.816;6.054;2023-05-07T10:42:10;21.10;57.80
41628;DHT22;27321;50.816;6.054;2023-05-07T10:45:16;21.10;58.00
41628;DHT22;27321;50.816;6.054;2023-05-07T10:48:22;21.10;58.80
41628;DHT22;27321;50.816;6.054;2023-05-07T10:51:29;21.00;58.90
41628;DHT22;27321;50.816;6.054;2023-05-07T10:54:44;21.00;58.90
41628;DHT22;27321;50.816;6.054;2023-05-07T10:57:50;20.90;59.20
41628;DHT22;27321;50.816;6.054;2023-05-07T11:01:04;20.90;59.20
41628;DHT22;27321;50.816;6.054;2023-05-07T11:04:15;20.70;59.20
41628;DHT22;27321;50.816;6.054;2023-05-07T11:07:24;20.60;59.10
41628;DHT22;27321;50.816;6.054;2023-05-07T11:11:15;20.50;59.80
41628;DHT22;27321;50.816;6.054;2023-05-07T11:14:00;20.50;59.90
41628;DHT22;27321;50.816;6.054;2023-05-07T11:17:26;20.50;59.10
41628;DHT22;27321;50.816;6.054;2023-05-07T11:20:44;20.40;60.30
41628;DHT22;27321;50.816;6.054;2023-05-07T11:24:16;20.40;65.20
41628;DHT22;27321;50.816;6.054;2023-05-07T11:27:25;20.30;73.70
41628;DHT22;27321;50.816;6.054;2023-05-07T11:30:27;20.20;75.60
41628;DHT22;27321;50.816;6.054;2023-05-07T11:33:31;20.10;76.00
41628;DHT22;27321;50.816;6.054;2023-05-07T11:36:34;20.20;76.60
41628;DHT22;27321;50.816;6.054;2023-05-07T11:39:37;20.20;75.80
41628;DHT22;27321;50.816;6.054;2023-05-07T11:42:38;20.40;76.30
41628;DHT22;27321;50.816;6.054;2023-05-07T11:45:40;20.50;76.60
41628;DHT22;27321;50.816;6.054;2023-05-07T11:48:41;20.60;75.40
41628;DHT22;27321;50.816;6.054;2023-05-07T11:51:43;20.70;74.80
41628;DHT22;27321;50.816;6.054;2023-05-07T11:54:54;20.80;75.00
41628;DHT22;27321;50.816;6.054;2023-05-07T11:57:56;20.90;76.80
41628;DHT22;27321;50.816;6.054;2023-05-07T12:00:57;21.00;77.40
41628;DHT22;27321;50.816;6.054;2023-05-07T12:03:58;21.00;77.40
41628;DHT22;27321;50.816;6.054;2023-05-07T12:06:59;20.80;76.40
41628;DHT22;27321;50.816;6.054;2023-05-07T12:10:03;20.60;75.30
41628;DHT22;27321;50.816;6.054;2023-05-07T12:13:13;20.50;74.90
41628;DHT22;27321;50.816;6.054;2023-05-07T12:16:21;20.50;75.70
41628;DHT22;27321;50.816;6.054;2023-05-07T12:19:22;20.40;75.70
41628;DHT22;27321;50.816;6.054;2023-05-07T12:22:26;20.40;76.30
41628;DHT22;27321;50.816;6.054;2023-05-07T12:25:29;20.40;76.50
41628;DHT22;27321;50.816;6.054;2023-05-07T12:28:32;20.40;75.40
41628;DHT22;27321;50.816;6.054;2023-05-07T12:31:41;20.40;75.80
41628;DHT22;27321;50.816;6.054;2023-05-07T12:34:42;20.30;76.60
41628;DHT22;27321;50.816;6.054;2023-05-07T12:37:57;20.30;76.80
41628;DHT22;27321;50.816;6.054;2023-05-07T12:41:00;20.40;76.80
41628;DHT22;27321;50.816;6.054;2023-05-07T12:44:01;20.40;76.80
41628;DHT22;27321;50.816;6.054;2023-05-07T12:47:05;20.40;76.60
41628;DHT22;27321;50.816;6.054;2023-05-07T12:50:09;20.50;76.10
41628;DHT22;27321;50.816;6.054;2023-05-07T12:53:13;20.50;74.90
41628;DHT22;27321;50.816;6.054;2023-05-07T12:56:15;20.60;75.20
41628;DHT22;27321;50.816;6.054;2023-05-07T12:59:16;20.60;72.90
41628;DHT22;27321;50.816;6.054;2023-05-07T13:02:18;20.70;72.00
41628;DHT22;27321;50.816;6.054;2023-05-07T13:05:22;20.70;71.10
41628;DHT22;27321;50.816;6.054;2023-05-07T13:08:27;20.70;71.00
41628;DHT22;27321;50.816;6.054;2023-05-07T13:11:30;20.80;71.30
41628;DHT22;27321;50.816;6.054;2023-05-07T13:14:31;20.90;70.90
41628;DHT22;27321;50.816;6.054;2023-05-07T13:17:32;20.90;69.80
41628;DHT22;27321;50.816;6.054;2023-05-07T13:20:33;20.90;68.20
41628;DHT22;27321;50.816;6.054;2023-05-07T13:23:37;20.90;69.40
41628;DHT22;27321;50.816;6.054;2023-05-07T13:26:39;21.00;69.30
41628;DHT22;27321;50.816;6.054;2023-05-07T13:29:40;21.00;69.60
41628;DHT22;27321;50.816;6.054;2023-05-07T13:32:41;21.10;70.10
41628;DHT22;27321;50.816;6.054;2023-05-07T13:35:43;21.20;70.40
41628;DHT22;27321;50.816;6.054;2023-05-07T13:38:44;21.30;69.80
41628;DHT22;27321;50.816;6.054;2023-05-07T13:41:47;21.30;69.40
41628;DHT22;27321;50.816;6.054;2023-05-07T13:44:48;21.30;68.80
41628;DHT22;27321;50.816;6.054;2023-05-07T13:47:49;21.20;68.50
41628;DHT22;27321;50.816;6.054;2023-05-07T13:50:51;21.20;68.70
41628;DHT22;27321;50.816;6.054;2023-05-07T13:53:52;21.20;69.60
41628;DHT22;27321;50.816;6.054;2023-05-07T13:56:58;21.10;68.90
41628;DHT22;27321;50.816;6.054;2023-05-07T13:59:59;21.10;69.30
41628;DHT22;27321;50.816;6.054;2023-05-07T14:03:00;21.10;67.90
41628;DHT22;27321;50.816;6.054;2023-05-07T14:06:01;20.90;68.00
41628;DHT22;27321;50.816;6.054;2023-05-07T14:09:03;20.80;68.90
41628;DHT22;27321;50.816;6.054;2023-05-07T14:12:04;20.70;68.40
41628;DHT22;27321;50.816;6.054;2023-05-07T14:15:06;20.60;67.90
41628;DHT22;27321;50.816;6.054;2023-05-07T14:18:07;20.60;68.00
41628;DHT22;27321;50.816;6.054;2023-05-07T14:21:08;20.60;67.10
41628;DHT22;27321;50.816;6.054;2023-05-07T14:24:10;20.70;67.70
41628;DHT22;27321;50.816;6.054;2023-05-07T14:27:11;20.80;67.90
41628;DHT22;27321;50.816;6.054;2023-05-07T14:30:12;20.90;67.30
41628;DHT22;27321;50.816;6.054;2023-05-07T14:33:13;20.90;67.20
41628;DHT22;27321;50.816;6.054;2023-05-07T14:36:14;20.80;67.80
41628;DHT22;27321;50.816;6.054;2023-05-07T14:39:16;20.90;68.10
41628;DHT22;27321;50.816;6.054;2023-05-07T14:42:17;20.90;68.50
41628;DHT22;27321;50.816;6.054;2023-05-07T14:45:20;20.90;68.20
41628;DHT22;27321;50.816;6.054;2023-05-07T14:48:21;20.80;67.10
41628;DHT22;27321;50.816;6.054;2023-05-07T14:51:22;20.80;67.00
41628;DHT22;27321;50.816;6.054;2023-05-07T14:54:24;20.70;65.70
41628;DHT22;27321;50.816;6.054;2023-05-07T14:57:25;20.70;65.70
41628;DHT22;27321;50.816;6.054;2023-05-07T15:00:25;20.70;66.10
41628;DHT22;27321;50.816;6.054;2023-05-07T15:03:27;20.60;66.40
41628;DHT22;27321;50.816;6.054;2023-05-07T15:06:28;20.60;66.80
41628;DHT22;27321;50.816;6.054;2023-05-07T15:09:29;20.60;65.00
41628;DHT22;27321;50.816;6.054;2023-05-07T15:12:30;20.50;64.80
41628;DHT22;27321;50.816;6.054;2023-05-07T15:15:31;20.50;64.60
41628;DHT22;27321;50.816;6.054;2023-05-07T15:18:33;20.50;64.70
41628;DHT22;27321;50.816;6.054;2023-05-07T15:21:34;20.50;63.90
41628;DHT22;27321;50.816;6.054;2023-05-07T15:24:36;20.50;64.80
41628;DHT22;27321;50.816;6.054;2023-05-07T15:27:37;20.60;65.20
41628;DHT22;27321;50.816;6.054;2023-05-07T15:30:38;20.80;65.40
41628;DHT22;27321;50.816;6.054;2023-05-07T15:33:39;20.80;66.00
41628;DHT22;27321;50.816;6.054;2023-05-07T15:36:41;20.90;66.20
41628;DHT22;27321;50.816;6.054;2023-05-07T15:39:46;20.90;66.50
41628;DHT22;27321;50.816;6.054;2023-05-07T15:42:47;20.80;67.20
41628;DHT22;27321;50.816;6.054;2023-05-07T15:45:50;20.80;67.70
41628;DHT22;27321;50.816;6.054;2023-05-07T15:48:52;20.80;68.10
41628;DHT22;27321;50.816;6.054;2023-05-07T15:51:53;20.80;68.50
41628;DHT22;27321;50.816;6.054;2023-05-07T15:54:55;20.60;68.30
41628;DHT22;27321;50.816;6.054;2023-05-07T15:57:57;20.60;68.60
41628;DHT22;27321;50.816;6.054;2023-05-07T16:00:58;20.60;68.90
41628;DHT22;27321;50.816;6.054;2023-05-07T16:04:00;20.50;69.00
41628;DHT22;27321;50.816;6.054;2023-05-07T16:07:01;20.50;69.40
41628;DHT22;27321;50.816;6.054;2023-05-07T16:10:06;20.50;69.10
41628;DHT22;27321;50.816;6.054;2023-05-07T16:13:08;20.50;69.20
41628;DHT22;27321;50.816;6.054;2023-05-07T16:16:09;20.40;69.80
41628;DHT22;27321;50.816;6.054;2023-05-07T16:19:10;20.40;70.10
41628;DHT22;27321;50.816;6.054;2023-05-07T16:22:11;20.30;70.50
41628;DHT22;27321;50.816;6.054;2023-05-07T16:25:12;20.30;70.70
41628;DHT22;27321;50.816;6.054;2023-05-07T16:28:14;20.30;70.90
41628;DHT22;27321;50.816;6.054;2023-05-07T16:31:16;20.10;71.10
41628;DHT22;27321;50.816;6.054;2023-05-07T16:34:17;20.10;71.50
41628;DHT22;27321;50.816;6.054;2023-05-07T16:37:19;20.00;71.30
41628;DHT22;27321;50.816;6.054;2023-05-07T16:40:21;19.90;71.80
41628;DHT22;27321;50.816;6.054;2023-05-07T16:43:22;19.80;72.00
41628;DHT22;27321;50.816;6.054;2023-05-07T16:46:23;19.80;72.50
41628;DHT22;27321;50.816;6.054;2023-05-07T16:49:24;19.80;73.10
41628;DHT22;27321;50.816;6.054;2023-05-07T16:52:26;19.80;72.90
41628;DHT22;27321;50.816;6.054;2023-05-07T16:55:29;19.80;73.10
41628;DHT22;27321;50.816;6.054;2023-05-07T16:58:34;19.80;72.70
41628;DHT22;27321;50.816;6.054;2023-05-07T17:01:35;19.80;72.40
41628;DHT22;27321;50.816;6.054;2023-05-07T17:04:36;19.80;72.60
41628;DHT22;27321;50.816;6.054;2023-05-07T17:07:36;19.80;72.30
41628;DHT22;27321;50.816;6.054;2023-05-07T17:10:37;19.70;72.30
41628;DHT22;27321;50.816;6.054;2023-05-07T17:13:38;19.70;72.20
41628;DHT22;27321;50.816;6.054;2023-05-07T17:16:40;19.70;72.40
41628;DHT22;27321;50.816;6.054;2023-05-07T17:19:41;19.70;72.20
41628;DHT22;27321;50.816;6.054;2023-05-07T17:22:50;19.70;72.20
41628;DHT22;27321;50.816;6.054;2023-05-07T17:25:51;19.70;72.20
41628;DHT22;27321;50.816;6.054;2023-05-07T17:28:51;19.70;72.00
41628;DHT22;27321;50.816;6.054;2023-05-07T17:31:52;19.70;71.90
41628;DHT22;27321;50.816;6.054;2023-05-07T17:34:54;19.70;71.80
41628;DHT22;27321;50.816;6.054;2023-05-07T17:37:56;19.60;71.70
41628;DHT22;27321;50.816;6.054;2023-05-07T17:40:57;19.60;71.40
41628;DHT22;27321;50.816;6.054;2023-05-07T17:43:59;19.70;71.80
41628;DHT22;27321;50.816;6.054;2023-05-07T17:47:03;19.70;71.80
41628;DHT22;27321;50.816;6.054;2023-05-07T17:50:04;19.60;72.30
41628;DHT22;27321;50.816;6.054;2023-05-07T17:53:10;19.70;72.90
41628;DHT22;27321;50.816;6.054;2023-05-07T17:56:11;19.70;73.20
41628;DHT22;27321;50.816;6.054;2023-05-07T17:59:15;19.70;73.50
41628;DHT22;27321;50.816;6.054;2023-05-07T18:02:16;19.70;73.60
41628;DHT22;27321;50.816;6.054;2023-05-07T18:05:17;19.70;73.90
41628;DHT22;27321;50.816;6.054;2023-05-07T18:08:18;19.70;74.00
41628;DHT22;27321;50.816;6.054;2023-05-07T18:11:19;19.70;74.30
41628;DHT22;27321;50.816;6.054;2023-05-07T18:14:21;19.70;74.50
41628;DHT22;27321;50.816;6.054;2023-05-07T18:17:25;19.70;74.70
41628;DHT22;27321;50.816;6.054;2023-05-07T18:20:27;19.60;74.80
41628;DHT22;27321;50.816;6.054;2023-05-07T18:23:28;19.60;74.80
41628;DHT22;27321;50.816;6.054;2023-05-07T18:26:29;19.60;74.90
41628;DHT22;27321;50.816;6.054;2023-05-07T18:29:30;19.60;75.10
41628;DHT22;27321;50.816;6.054;2023-05-07T18:32:30;19.60;74.90
41628;DHT22;27321;50.816;6.054;2023-05-07T18:35:31;19.60;75.00
41628;DHT22;27321;50.816;6.054;2023-05-07T18:38:32;19.60;75.20
41628;DHT22;27321;50.816;6.054;2023-05-07T18:41:36;19.60;75.20
41628;DHT22;27321;50.816;6.054;2023-05-07T18:44:38;19.50;75.40
41628;DHT22;27321;50.816;6.054;2023-05-07T18:47:39;19.50;75.60
41628;DHT22;27321;50.816;6.054;2023-05-07T18:50:41;19.50;75.60
41628;DHT22;27321;50.816;6.054;2023-05-07T18:53:44;19.50;75.70
41628;DHT22;27321;50.816;6.054;2023-05-07T18:56:45;19.50;75.60
41628;DHT22;27321;50.816;6.054;2023-05-07T18:59:46;19.50;75.50
41628;DHT22;27321;50.816;6.054;2023-05-07T19:02:47;19.40;75.60
41628;DHT22;27321;50.816;6.054;2023-05-07T19:05:48;19.40;75.70
41628;DHT22;27321;50.816;6.054;2023-05-07T19:08:49;19.40;75.80
41628;DHT22;27321;50.816;6.054;2023-05-07T19:11:50;19.40;75.70
41628;DHT22;27321;50.816;6.054;2023-05-07T19:14:54;19.30;75.90